Time;durP1;ratioP1;P1;durP2;ratioP2;P2;SDS_P1;SDS_P2;PMS_P1;PMS_P2;Temp;Humidity;BMP_temperature;BMP_pressure;BME280_temperature;BME280_humidity;BME280_pressure;Samples;Min_cycle;Max_cycle;Signal;HPM_P1;HPM_P2
2022/09/18 00:01:35;;;;;;;;;;;19.40;86.90;;;;;;5114297;28;20196;-41
2022/09/18 00:04:02;;;;;;;;;;;19.40;86.80;;;;;;5114272;28;19920;-41
2022/09/18 00:06:29;;;;;;;;;;;19.40;86.80;;;;;;5113864;28;19936;-41
2022/09/18 00:08:56;;;;;;;;;;;19.40;86.90;;;;;;5113896;28;20293;-42
2022/09/18 00:11:24;;;;;;;;;;;19.40;86.90;;;;;;5114083;28;19990;-42
2022/09/18 00:13:49;;;;;;;;;;;19.40;86.90;;;;;;5113851;28;19968;-42
2022/09/18 00:16:16;;;;;;;;;;;19.40;86.80;;;;;;5113919;28;19908;-41
2022/09/18 00:18:42;;;;;;;;;;;19.40;86.90;;;;;;5114469;28;19908;-42
2022/09/18 00:21:12;;;;;;;;;;;19.30;86.90;;;;;;5099792;28;19976;-41
2022/09/18 00:23:38;;;;;;;;;;;19.40;86.90;;;;;;5118169;28;19908;-41
2022/09/18 00:26:04;;;;;;;;;;;19.40;86.90;;;;;;5118022;28;19908;-42
2022/09/18 00:28:30;;;;;;;;;;;19.30;86.90;;;;;;5117786;28;19998;-41
2022/09/18 00:31:01;;;;;;;;;;;19.30;86.90;;;;;;5117674;28;19915;-42
2022/09/18 00:33:27;;;;;;;;;;;19.40;87.00;;;;;;5117614;28;19912;-41
2022/09/18 00:35:52;;;;;;;;;;;19.40;86.90;;;;;;5117525;28;19912;-41
2022/09/18 00:38:17;;;;;;;;;;;19.40;86.90;;;;;;5117474;28;19915;-41
2022/09/18 00:40:43;;;;;;;;;;;19.40;87.00;;;;;;5117560;28;19914;-41
2022/09/18 00:43:19;;;;;;;;;;;19.40;87.00;;;;;;5117727;28;19970;-41
2022/09/18 00:45:48;;;;;;;;;;;19.40;87.00;;;;;;5117715;28;19908;-42
2022/09/18 00:48:13;;;;;;;;;;;19.40;86.90;;;;;;5117539;28;19908;-41
2022/09/18 00:50:39;;;;;;;;;;;19.40;87.00;;;;;;5117207;28;19995;-42
2022/09/18 00:53:05;;;;;;;;;;;19.40;86.90;;;;;;5117089;28;19937;-44
2022/09/18 00:55:36;;;;;;;;;;;19.40;86.90;;;;;;5117470;28;19919;-41
2022/09/18 00:58:02;;;;;;;;;;;19.30;87.00;;;;;;5117352;28;20336;-42
2022/09/18 01:00:28;;;;;;;;;;;19.40;87.10;;;;;;5117126;28;20372;-41
2022/09/18 01:02:54;;;;;;;;;;;19.30;87.00;;;;;;5098982;28;20002;-44
2022/09/18 01:05:40;;;;;;;;;;;19.40;87.00;;;;;;5117395;28;20300;-41
2022/09/18 01:08:06;;;;;;;;;;;19.40;87.00;;;;;;5117085;28;20355;-42
2022/09/18 01:10:41;;;;;;;;;;;19.30;86.90;;;;;;5117222;28;19914;-41
2022/09/18 01:13:25;;;;;;;;;;;19.40;87.00;;;;;;5117115;28;19912;-42
2022/09/18 01:15:56;;;;;;;;;;;19.30;87.00;;;;;;5098750;28;19912;-41
2022/09/18 01:18:33;;;;;;;;;;;19.40;87.10;;;;;;5117190;28;20278;-41
2022/09/18 01:20:59;;;;;;;;;;;19.30;87.00;;;;;;5117085;28;19908;-41
2022/09/18 01:23:51;;;;;;;;;;;19.40;87.00;;;;;;5116959;28;19919;-41
2022/09/18 01:26:28;;;;;;;;;;;19.30;87.00;;;;;;5085176;28;19930;-42
2022/09/18 01:29:04;;;;;;;;;;;19.30;87.10;;;;;;5116564;28;19908;-42
2022/09/18 01:31:32;;;;;;;;;;;19.40;87.20;;;;;;5115731;28;20263;-42
2022/09/18 01:34:00;;;;;;;;;;;19.40;87.10;;;;;;5098541;28;19922;-41
2022/09/18 01:36:28;;;;;;;;;;;19.30;87.00;;;;;;5117063;28;19915;-42
2022/09/18 01:38:57;;;;;;;;;;;19.30;87.20;;;;;;5116728;28;20252;-42
2022/09/18 01:41:23;;;;;;;;;;;19.30;87.20;;;;;;5116328;28;19908;-42
2022/09/18 01:43:54;;;;;;;;;;;19.30;87.20;;;;;;5116603;28;19953;-42
2022/09/18 01:46:21;;;;;;;;;;;19.30;87.70;;;;;;5116541;28;19908;-41
2022/09/18 01:48:50;;;;;;;;;;;19.30;87.10;;;;;;5116234;28;20362;-41
2022/09/18 01:51:19;;;;;;;;;;;19.30;87.10;;;;;;5116411;28;19910;-41
2022/09/18 01:53:50;;;;;;;;;;;19.30;87.50;;;;;;5116402;28;20407;-41
2022/09/18 01:56:21;;;;;;;;;;;19.30;87.10;;;;;;5116420;28;20285;-42
2022/09/18 01:58:48;;;;;;;;;;;19.30;87.00;;;;;;5098026;28;19915;-42
2022/09/18 02:01:15;;;;;;;;;;;19.30;87.00;;;;;;5116239;28;19954;-42
2022/09/18 02:03:44;;;;;;;;;;;19.30;87.00;;;;;;5116169;28;20354;-41
2022/09/18 02:06:09;;;;;;;;;;;19.30;87.00;;;;;;5116156;28;19908;-42
2022/09/18 02:08:40;;;;;;;;;;;19.30;87.00;;;;;;5115801;28;19908;-42
2022/09/18 02:11:10;;;;;;;;;;;19.30;87.10;;;;;;5115800;28;19951;-41
2022/09/18 02:13:38;;;;;;;;;;;19.30;87.00;;;;;;5097810;28;19918;-42
2022/09/18 02:16:05;;;;;;;;;;;19.30;87.10;;;;;;5116074;28;19947;-41
2022/09/18 02:18:33;;;;;;;;;;;19.30;87.10;;;;;;5115669;28;19930;-42
2022/09/18 02:20:59;;;;;;;;;;;19.30;87.20;;;;;;5082421;28;20347;-42
2022/09/18 02:23:27;;;;;;;;;;;19.30;87.10;;;;;;5095055;28;20401;-41
2022/09/18 02:25:57;;;;;;;;;;;19.20;87.00;;;;;;5093179;28;19908;-41
2022/09/18 02:28:24;;;;;;;;;;;19.20;87.10;;;;;;5082159;28;19912;-41
2022/09/18 02:30:50;;;;;;;;;;;19.30;87.20;;;;;;5077207;28;19908;-42
2022/09/18 02:33:22;;;;;;;;;;;19.20;87.10;;;;;;5094758;28;19934;-41
2022/09/18 02:35:50;;;;;;;;;;;19.30;87.10;;;;;;5094958;28;20016;-41
2022/09/18 02:38:28;;;;;;;;;;;19.30;87.10;;;;;;5094870;28;19916;-42
2022/09/18 02:40:53;;;;;;;;;;;19.30;87.00;;;;;;5114335;28;19918;-42
2022/09/18 02:43:38;;;;;;;;;;;19.30;87.00;;;;;;5114968;28;19991;-42
2022/09/18 02:46:03;;;;;;;;;;;19.30;87.10;;;;;;5094247;28;20286;-40
2022/09/18 02:48:32;;;;;;;;;;;19.30;87.10;;;;;;5083458;28;19959;-40
2022/09/18 02:51:16;;;;;;;;;;;19.30;87.20;;;;;;5094965;28;19908;-41
2022/09/18 02:53:41;;;;;;;;;;;19.30;87.10;;;;;;5094797;28;19919;-41
2022/09/18 02:56:17;;;;;;;;;;;19.30;87.10;;;;;;5094308;28;19912;-41
2022/09/18 02:58:52;;;;;;;;;;;19.30;87.20;;;;;;5094812;28;19915;-41
2022/09/18 03:01:19;;;;;;;;;;;19.20;87.20;;;;;;5094632;28;19998;-40
2022/09/18 03:03:45;;;;;;;;;;;19.20;87.10;;;;;;5076411;28;19969;-41
2022/09/18 03:06:11;;;;;;;;;;;19.30;87.20;;;;;;5094977;28;19911;-40
2022/09/18 03:08:36;;;;;;;;;;;19.20;87.10;;;;;;5094317;28;19909;-41
2022/09/18 03:11:02;;;;;;;;;;;19.20;87.10;;;;;;5094647;28;19915;-41
2022/09/18 03:13:28;;;;;;;;;;;19.20;87.20;;;;;;5094298;28;20266;-41
2022/09/18 03:15:54;;;;;;;;;;;19.20;87.20;;;;;;5094556;28;19919;-41
2022/09/18 03:18:19;;;;;;;;;;;19.20;87.20;;;;;;5094460;28;19912;-41
2022/09/18 03:20:45;;;;;;;;;;;19.20;87.20;;;;;;5076480;28;19908;-40
2022/09/18 03:23:10;;;;;;;;;;;19.20;87.10;;;;;;5094155;28;19915;-41
2022/09/18 03:25:35;;;;;;;;;;;19.20;87.10;;;;;;5094159;28;19915;-41
2022/09/18 03:28:01;;;;;;;;;;;19.20;87.10;;;;;;5094001;28;19908;-41
2022/09/18 03:30:26;;;;;;;;;;;19.20;87.70;;;;;;5093844;28;19908;-40
2022/09/18 03:32:52;;;;;;;;;;;19.20;87.10;;;;;;5093792;28;20290;-41
2022/09/18 03:35:18;;;;;;;;;;;19.20;87.20;;;;;;5099345;28;19924;-40
2022/09/18 03:37:43;;;;;;;;;;;19.20;87.20;;;;;;5114478;28;20276;-40
2022/09/18 03:40:09;;;;;;;;;;;19.20;87.10;;;;;;5114614;28;19953;-42
2022/09/18 03:42:34;;;;;;;;;;;19.20;87.20;;;;;;5094161;28;19918;-40
2022/09/18 03:45:00;;;;;;;;;;;19.20;87.20;;;;;;5093882;28;19916;-41
2022/09/18 03:47:25;;;;;;;;;;;19.20;87.20;;;;;;5093899;28;19908;-41
2022/09/18 03:49:51;;;;;;;;;;;19.20;87.10;;;;;;5094467;28;19929;-41
2022/09/18 03:52:16;;;;;;;;;;;19.20;87.10;;;;;;5094053;28;19920;-41
2022/09/18 03:54:42;;;;;;;;;;;19.20;87.10;;;;;;5096066;28;19912;-41
2022/09/18 03:57:07;;;;;;;;;;;19.20;87.10;;;;;;5097960;28;20001;-41
2022/09/18 03:59:33;;;;;;;;;;;19.20;87.10;;;;;;5097888;28;19908;-41
2022/09/18 04:01:58;;;;;;;;;;;19.20;87.20;;;;;;5104777;28;19912;-41
2022/09/18 04:04:24;;;;;;;;;;;19.20;87.20;;;;;;5108108;28;19931;-41
2022/09/18 04:06:50;;;;;;;;;;;19.20;87.10;;;;;;5098163;28;19955;-41
2022/09/18 04:09:15;;;;;;;;;;;19.20;87.10;;;;;;5098109;28;19912;-41
2022/09/18 04:11:41;;;;;;;;;;;19.20;87.10;;;;;;5097863;28;19944;-41
2022/09/18 04:14:06;;;;;;;;;;;19.20;87.10;;;;;;5079743;28;19912;-40
2022/09/18 04:16:32;;;;;;;;;;;19.20;87.30;;;;;;5097949;28;19916;-40
2022/09/18 04:18:58;;;;;;;;;;;19.20;87.20;;;;;;5097588;28;19954;-41
2022/09/18 04:21:23;;;;;;;;;;;19.10;87.20;;;;;;5097400;28;20325;-40
2022/09/18 04:23:49;;;;;;;;;;;19.10;87.30;;;;;;5097460;28;19908;-40
2022/09/18 04:26:14;;;;;;;;;;;19.10;87.20;;;;;;5079544;28;19955;-41
2022/09/18 04:28:40;;;;;;;;;;;19.20;87.30;;;;;;5110412;28;19916;-42
2022/09/18 04:31:05;;;;;;;;;;;19.20;87.20;;;;;;5117978;28;20048;-41
2022/09/18 04:33:31;;;;;;;;;;;19.20;87.20;;;;;;5117409;28;20258;-41
2022/09/18 04:35:56;;;;;;;;;;;19.10;87.20;;;;;;5117528;28;20358;-41
2022/09/18 04:38:26;;;;;;;;;;;19.10;87.20;;;;;;5107168;28;19908;-41
2022/09/18 04:40:58;;;;;;;;;;;19.10;87.20;;;;;;5097435;28;19969;-41
2022/09/18 04:43:25;;;;;;;;;;;19.10;87.20;;;;;;5111668;28;19919;-41
2022/09/18 04:45:50;;;;;;;;;;;19.10;87.20;;;;;;5117477;28;19915;-40
2022/09/18 04:48:16;;;;;;;;;;;19.10;87.20;;;;;;5117544;28;19908;-42
2022/09/18 04:50:42;;;;;;;;;;;19.10;87.20;;;;;;5117743;28;19947;-42
2022/09/18 04:53:07;;;;;;;;;;;19.10;87.20;;;;;;5085570;28;19950;-41
2022/09/18 04:55:33;;;;;;;;;;;19.10;87.20;;;;;;5096688;28;19912;-41
2022/09/18 04:57:58;;;;;;;;;;;19.10;87.20;;;;;;5097443;28;19914;-42
2022/09/18 05:00:24;;;;;;;;;;;19.10;87.20;;;;;;5078889;28;19912;-42
2022/09/18 05:02:50;;;;;;;;;;;19.10;87.20;;;;;;5096806;28;20259;-42
2022/09/18 05:05:16;;;;;;;;;;;19.10;87.30;;;;;;5096928;28;19908;-42
2022/09/18 05:07:41;;;;;;;;;;;19.10;87.20;;;;;;5107743;28;19912;-42
2022/09/18 05:10:09;;;;;;;;;;;19.10;87.30;;;;;;5116031;28;19957;-41
2022/09/18 05:12:35;;;;;;;;;;;19.10;87.30;;;;;;5110484;28;20596;-41
2022/09/18 05:15:00;;;;;;;;;;;19.10;87.30;;;;;;5096365;28;20439;-41
2022/09/18 05:17:26;;;;;;;;;;;19.10;87.20;;;;;;5096532;28;19991;-41
2022/09/18 05:19:51;;;;;;;;;;;19.10;87.30;;;;;;5100032;28;19916;-41
2022/09/18 05:22:17;;;;;;;;;;;19.10;87.30;;;;;;5117140;28;20349;-42
2022/09/18 05:24:42;;;;;;;;;;;19.10;87.30;;;;;;5104985;28;19911;-41
2022/09/18 05:27:08;;;;;;;;;;;19.10;87.40;;;;;;5111677;28;19972;-41
2022/09/18 05:29:34;;;;;;;;;;;19.10;87.50;;;;;;5114870;28;19919;-40
2022/09/18 05:32:00;;;;;;;;;;;19.10;87.40;;;;;;5110444;28;20010;-40
2022/09/18 05:34:25;;;;;;;;;;;19.10;87.50;;;;;;5110444;28;19962;-41
2022/09/18 05:36:51;;;;;;;;;;;19.10;87.60;;;;;;5101975;28;19913;-41
2022/09/18 05:39:16;;;;;;;;;;;19.10;87.70;;;;;;5095115;28;20358;-41
2022/09/18 05:41:42;;;;;;;;;;;19.10;87.60;;;;;;5112399;28;19916;-41
2022/09/18 05:44:07;;;;;;;;;;;19.10;87.60;;;;;;5112191;28;19920;-41
2022/09/18 05:46:32;;;;;;;;;;;19.10;87.50;;;;;;5114996;28;19911;-40
2022/09/18 05:48:58;;;;;;;;;;;19.10;87.40;;;;;;5079573;28;19961;-40
2022/09/18 05:51:24;;;;;;;;;;;19.10;87.40;;;;;;5095635;28;20072;-40
2022/09/18 05:53:49;;;;;;;;;;;19.10;87.30;;;;;;5109194;28;19923;-43
2022/09/18 05:56:15;;;;;;;;;;;19.10;87.30;;;;;;5098504;28;20012;-41
2022/09/18 05:58:41;;;;;;;;;;;19.10;87.20;;;;;;5114283;28;19916;-40
2022/09/18 06:01:07;;;;;;;;;;;19.10;87.10;;;;;;5112667;28;20079;-41
2022/09/18 06:03:32;;;;;;;;;;;19.10;87.10;;;;;;5114814;28;19927;-40
2022/09/18 06:05:58;;;;;;;;;;;19.00;87.00;;;;;;5115983;28;19914;-40
2022/09/18 06:08:23;;;;;;;;;;;19.10;87.00;;;;;;5112341;28;19911;-41
2022/09/18 06:10:49;;;;;;;;;;;19.10;86.90;;;;;;5101570;28;19911;-41
2022/09/18 06:13:15;;;;;;;;;;;19.10;86.90;;;;;;5115804;28;20443;-40
2022/09/18 06:15:48;;;;;;;;;;;19.00;86.80;;;;;;5111006;28;19955;-41
2022/09/18 06:18:14;;;;;;;;;;;19.00;86.70;;;;;;5111681;28;19911;-40
2022/09/18 06:20:40;;;;;;;;;;;19.00;86.90;;;;;;5104064;28;19912;-41
2022/09/18 06:23:05;;;;;;;;;;;19.00;86.90;;;;;;5084905;28;19914;-41
2022/09/18 06:25:31;;;;;;;;;;;19.00;86.80;;;;;;5095101;28;19912;-40
2022/09/18 06:27:57;;;;;;;;;;;19.00;86.70;;;;;;5094727;28;20011;-41
2022/09/18 06:30:26;;;;;;;;;;;19.10;86.70;;;;;;5094759;28;19909;-41
2022/09/18 06:32:52;;;;;;;;;;;19.00;86.60;;;;;;5094766;28;19912;-40
2022/09/18 06:35:18;;;;;;;;;;;19.00;86.60;;;;;;5095064;28;20405;-41
2022/09/18 06:37:44;;;;;;;;;;;19.00;86.60;;;;;;5094961;28;19908;-41
2022/09/18 06:40:09;;;;;;;;;;;19.00;87.10;;;;;;5095159;28;20472;-41
2022/09/18 06:42:35;;;;;;;;;;;19.00;86.60;;;;;;5094713;28;19915;-41
2022/09/18 06:45:00;;;;;;;;;;;19.00;86.50;;;;;;5094779;28;19975;-41
2022/09/18 06:47:26;;;;;;;;;;;19.00;86.60;;;;;;5095126;28;19912;-41
2022/09/18 06:49:51;;;;;;;;;;;19.00;86.50;;;;;;5094563;28;19907;-41
2022/09/18 06:52:17;;;;;;;;;;;19.00;86.50;;;;;;5076582;28;19912;-41
2022/09/18 06:54:42;;;;;;;;;;;19.00;86.50;;;;;;5094554;28;19912;-41
2022/09/18 06:57:08;;;;;;;;;;;19.00;86.50;;;;;;5094553;28;19931;-41
2022/09/18 06:59:33;;;;;;;;;;;19.00;86.50;;;;;;5094676;28;19969;-41
2022/09/18 07:01:59;;;;;;;;;;;19.00;86.50;;;;;;5094434;28;19915;-41
2022/09/18 07:04:24;;;;;;;;;;;19.00;86.50;;;;;;5094758;28;19931;-40
2022/09/18 07:06:49;;;;;;;;;;;19.00;86.50;;;;;;5094317;28;20358;-41
2022/09/18 07:09:15;;;;;;;;;;;19.00;86.50;;;;;;5094402;28;19908;-40
2022/09/18 07:11:40;;;;;;;;;;;19.00;86.50;;;;;;5094420;28;20006;-40
2022/09/18 07:14:07;;;;;;;;;;;19.00;86.40;;;;;;5076330;28;19912;-40
2022/09/18 07:16:33;;;;;;;;;;;19.00;86.40;;;;;;5094175;28;19950;-40
2022/09/18 07:18:58;;;;;;;;;;;19.00;86.40;;;;;;5094451;28;19976;-41
2022/09/18 07:21:24;;;;;;;;;;;19.00;86.40;;;;;;5094073;28;20363;-40
2022/09/18 07:23:49;;;;;;;;;;;19.00;86.50;;;;;;5094443;28;19916;-41
2022/09/18 07:26:15;;;;;;;;;;;19.00;86.50;;;;;;5094337;28;19914;-41
2022/09/18 07:28:40;;;;;;;;;;;19.00;86.40;;;;;;5094291;28;20393;-39
2022/09/18 07:31:06;;;;;;;;;;;19.00;86.40;;;;;;5093983;28;20014;-39
2022/09/18 07:33:32;;;;;;;;;;;19.00;86.40;;;;;;5093755;28;19912;-40
2022/09/18 07:36:01;;;;;;;;;;;19.00;86.50;;;;;;5093756;28;19918;-39
2022/09/18 07:38:26;;;;;;;;;;;19.00;86.50;;;;;;5094116;28;19908;-39
2022/09/18 07:40:52;;;;;;;;;;;19.00;86.50;;;;;;5093880;28;19908;-39
2022/09/18 07:43:18;;;;;;;;;;;19.00;86.50;;;;;;5093604;28;19951;-40
2022/09/18 07:45:43;;;;;;;;;;;19.00;86.50;;;;;;5093847;28;19908;-39
2022/09/18 07:48:09;;;;;;;;;;;19.00;86.50;;;;;;5093955;28;19931;-39
2022/09/18 07:50:34;;;;;;;;;;;19.00;86.50;;;;;;5093989;28;19935;-39
2022/09/18 07:53:04;;;;;;;;;;;19.00;86.50;;;;;;5093532;28;19912;-40
2022/09/18 07:55:30;;;;;;;;;;;19.00;86.50;;;;;;5093776;28;19957;-40
2022/09/18 07:57:56;;;;;;;;;;;19.00;86.50;;;;;;5093876;28;20010;-40
2022/09/18 08:00:22;;;;;;;;;;;19.00;86.50;;;;;;5093904;28;19915;-40
2022/09/18 08:02:48;;;;;;;;;;;19.00;86.50;;;;;;5094102;28;20428;-40
2022/09/18 08:05:13;;;;;;;;;;;19.00;86.50;;;;;;5094303;28;19920;-40
2022/09/18 08:07:39;;;;;;;;;;;19.00;86.40;;;;;;5093423;28;20319;-40
2022/09/18 08:10:04;;;;;;;;;;;19.00;86.40;;;;;;5093757;28;19918;-40
2022/09/18 08:12:30;;;;;;;;;;;19.00;86.40;;;;;;5093631;28;19960;-40
2022/09/18 08:14:57;;;;;;;;;;;19.00;86.40;;;;;;5093345;28;19918;-40
2022/09/18 08:17:22;;;;;;;;;;;18.90;86.40;;;;;;5093768;28;19908;-40
2022/09/18 08:19:48;;;;;;;;;;;19.00;86.40;;;;;;5093352;28;19909;-40
2022/09/18 08:22:13;;;;;;;;;;;19.00;86.40;;;;;;5093902;28;19908;-40
2022/09/18 08:24:39;;;;;;;;;;;19.00;86.40;;;;;;5093607;28;19908;-40
2022/09/18 08:27:04;;;;;;;;;;;18.90;86.40;;;;;;5093285;28;19964;-40
2022/09/18 08:29:30;;;;;;;;;;;19.00;86.40;;;;;;5093304;28;19915;-40
2022/09/18 08:31:55;;;;;;;;;;;19.00;86.40;;;;;;5093177;28;20200;-40
2022/09/18 08:34:21;;;;;;;;;;;19.00;86.40;;;;;;5093401;28;19912;-40
2022/09/18 08:36:46;;;;;;;;;;;19.00;86.40;;;;;;5093028;28;20423;-40
2022/09/18 08:39:12;;;;;;;;;;;19.00;86.40;;;;;;5093508;28;19908;-40
2022/09/18 08:41:46;;;;;;;;;;;19.00;86.40;;;;;;5096980;28;19944;-40
2022/09/18 08:44:23;;;;;;;;;;;19.00;86.30;;;;;;5078962;28;19908;-41
2022/09/18 08:47:00;;;;;;;;;;;19.00;86.30;;;;;;5097330;28;20014;-40
2022/09/18 08:49:25;;;;;;;;;;;18.90;86.30;;;;;;5097143;28;20350;-40
2022/09/18 08:52:11;;;;;;;;;;;19.00;86.30;;;;;;5078754;28;19961;-41
2022/09/18 08:54:43;;;;;;;;;;;19.00;86.30;;;;;;5078703;28;20372;-40
2022/09/18 08:57:15;;;;;;;;;;;18.90;86.30;;;;;;5096928;28;19908;-41
2022/09/18 08:59:43;;;;;;;;;;;19.00;86.30;;;;;;5096998;28;20012;-41
2022/09/18 09:02:12;;;;;;;;;;;19.00;86.30;;;;;;5096828;28;19908;-40
2022/09/18 09:04:37;;;;;;;;;;;19.00;86.30;;;;;;5096755;28;19920;-40
2022/09/18 09:07:12;;;;;;;;;;;18.90;86.20;;;;;;5096834;28;20010;-40
2022/09/18 09:10:02;;;;;;;;;;;18.90;86.20;;;;;;5096756;28;20014;-40
2022/09/18 09:12:40;;;;;;;;;;;19.00;86.30;;;;;;5096246;28;19912;-40
2022/09/18 09:15:09;;;;;;;;;;;19.00;86.20;;;;;;5096653;28;19919;-40
2022/09/18 09:17:39;;;;;;;;;;;18.90;86.20;;;;;;5078478;28;19912;-41
2022/09/18 09:20:31;;;;;;;;;;;19.00;86.20;;;;;;5096699;28;19916;-40
2022/09/18 09:22:59;;;;;;;;;;;19.00;86.20;;;;;;5057613;28;19915;-41
2022/09/18 09:25:30;;;;;;;;;;;19.00;86.20;;;;;;5096032;28;20285;-40
2022/09/18 09:27:56;;;;;;;;;;;19.00;86.20;;;;;;5096516;28;19908;-40
2022/09/18 09:30:21;;;;;;;;;;;18.90;86.20;;;;;;5096525;28;20015;-40
2022/09/18 09:32:50;;;;;;;;;;;18.90;86.10;;;;;;5095936;28;19913;-41
2022/09/18 09:35:15;;;;;;;;;;;18.90;86.10;;;;;;5096043;28;19981;-40
2022/09/18 09:37:45;;;;;;;;;;;18.90;86.10;;;;;;5096032;28;20367;-40
2022/09/18 09:40:32;;;;;;;;;;;18.90;86.10;;;;;;5096256;28;19908;-41
2022/09/18 09:43:00;;;;;;;;;;;18.90;86.10;;;;;;5078104;28;19915;-41
2022/09/18 09:45:32;;;;;;;;;;;18.90;86.10;;;;;;5095992;28;20397;-41
2022/09/18 09:48:03;;;;;;;;;;;18.90;86.10;;;;;;5095993;28;20045;-40
2022/09/18 09:50:43;;;;;;;;;;;18.90;86.10;;;;;;5095689;28;20287;-40
2022/09/18 09:53:10;;;;;;;;;;;18.90;86.10;;;;;;5095162;28;19960;-40
2022/09/18 09:55:56;;;;;;;;;;;18.90;86.10;;;;;;5095655;28;20267;-40
2022/09/18 09:58:28;;;;;;;;;;;18.90;86.10;;;;;;5078361;28;19944;-40
2022/09/18 10:01:03;;;;;;;;;;;18.90;86.10;;;;;;5096215;28;20049;-41
2022/09/18 10:03:33;;;;;;;;;;;18.90;86.10;;;;;;5095463;28;20362;-41
2022/09/18 10:06:08;;;;;;;;;;;18.90;86.10;;;;;;5095765;28;20011;-41
2022/09/18 10:08:36;;;;;;;;;;;18.90;86.10;;;;;;5095705;28;19915;-41
2022/09/18 10:11:07;;;;;;;;;;;18.90;86.10;;;;;;5095492;28;19915;-41
2022/09/18 10:13:40;;;;;;;;;;;18.90;86.10;;;;;;5095266;28;19912;-41
2022/09/18 10:16:17;;;;;;;;;;;18.90;86.10;;;;;;5095785;28;20484;-42
2022/09/18 10:18:45;;;;;;;;;;;18.90;86.10;;;;;;5094553;28;22277;-41
2022/09/18 10:21:18;;;;;;;;;;;18.90;86.10;;;;;;5077233;28;19908;-41
2022/09/18 10:23:49;;;;;;;;;;;18.90;86.10;;;;;;5095062;28;19915;-41
2022/09/18 10:26:31;;;;;;;;;;;18.90;86.00;;;;;;5095143;28;19935;-41
2022/09/18 10:28:57;;;;;;;;;;;18.90;86.00;;;;;;5095172;28;19961;-41
2022/09/18 10:31:43;;;;;;;;;;;18.90;86.00;;;;;;5095046;28;19912;-41
2022/09/18 10:34:29;;;;;;;;;;;18.90;86.00;;;;;;5094804;28;20011;-41
2022/09/18 10:36:54;;;;;;;;;;;18.90;86.10;;;;;;5094643;28;19914;-41
2022/09/18 10:39:28;;;;;;;;;;;18.90;86.00;;;;;;5094969;28;19990;-41
2022/09/18 10:42:00;;;;;;;;;;;18.90;86.00;;;;;;5094781;28;20011;-41
2022/09/18 10:44:27;;;;;;;;;;;18.90;86.00;;;;;;5094617;28;19908;-41
2022/09/18 10:47:02;;;;;;;;;;;18.80;86.50;;;;;;5095023;28;19998;-41
2022/09/18 10:49:29;;;;;;;;;;;18.90;86.00;;;;;;5094818;28;19916;-41
2022/09/18 10:52:13;;;;;;;;;;;18.90;86.00;;;;;;5094511;28;19912;-40
2022/09/18 10:54:39;;;;;;;;;;;18.90;86.00;;;;;;5094474;28;19916;-40
2022/09/18 10:57:24;;;;;;;;;;;18.90;86.00;;;;;;5094495;28;19997;-40
2022/09/18 10:59:49;;;;;;;;;;;18.90;86.00;;;;;;5094576;28;19908;-41
2022/09/18 11:02:18;;;;;;;;;;;18.90;86.00;;;;;;5094496;28;19915;-40
2022/09/18 11:04:46;;;;;;;;;;;18.90;86.00;;;;;;5076176;28;20269;-41
2022/09/18 11:07:12;;;;;;;;;;;18.90;86.10;;;;;;5094587;28;20362;-41
2022/09/18 11:09:38;;;;;;;;;;;18.90;86.20;;;;;;5094401;28;19924;-40
2022/09/18 11:12:11;;;;;;;;;;;18.90;86.10;;;;;;5094569;28;20275;-41
2022/09/18 11:14:39;;;;;;;;;;;18.90;86.10;;;;;;5076178;28;20281;-41
2022/09/18 11:17:05;;;;;;;;;;;19.00;86.10;;;;;;5094290;28;19958;-40
2022/09/18 11:19:32;;;;;;;;;;;19.00;86.00;;;;;;5093970;28;19912;-40
2022/09/18 11:22:02;;;;;;;;;;;19.00;85.90;;;;;;5094291;28;19914;-40
2022/09/18 11:24:32;;;;;;;;;;;19.10;85.90;;;;;;5093873;28;19954;-40
2022/09/18 11:27:01;;;;;;;;;;;19.10;85.80;;;;;;5094196;28;19947;-41
2022/09/18 11:29:38;;;;;;;;;;;19.20;85.70;;;;;;5094197;28;19931;-40
2022/09/18 11:32:16;;;;;;;;;;;19.20;85.60;;;;;;5075700;28;19909;-40
2022/09/18 11:34:46;;;;;;;;;;;19.20;85.60;;;;;;5093872;28;19938;-40
2022/09/18 11:37:13;;;;;;;;;;;19.20;85.50;;;;;;5093908;28;19908;-40
2022/09/18 11:39:43;;;;;;;;;;;19.20;85.40;;;;;;5093992;28;19915;-41
2022/09/18 11:42:11;;;;;;;;;;;19.20;85.40;;;;;;5093715;28;19908;-40
2022/09/18 11:44:37;;;;;;;;;;;19.20;85.20;;;;;;5093651;28;19908;-40
2022/09/18 11:47:13;;;;;;;;;;;19.20;85.20;;;;;;5093655;28;19977;-41
2022/09/18 11:49:40;;;;;;;;;;;19.20;85.10;;;;;;5093841;28;19948;-41
2022/09/18 11:52:15;;;;;;;;;;;19.30;85.20;;;;;;5093920;28;20416;-41
2022/09/18 11:54:50;;;;;;;;;;;19.30;85.20;;;;;;5093686;28;19920;-41
2022/09/18 11:57:19;;;;;;;;;;;19.30;85.10;;;;;;5093810;28;20240;-40
2022/09/18 11:59:56;;;;;;;;;;;19.30;85.00;;;;;;5094000;28;19919;-40
2022/09/18 12:02:31;;;;;;;;;;;19.30;85.00;;;;;;5093739;28;20361;-40
2022/09/18 12:05:01;;;;;;;;;;;19.30;85.00;;;;;;5093831;28;19921;-40
2022/09/18 12:07:40;;;;;;;;;;;19.30;85.00;;;;;;5093813;28;19919;-40
2022/09/18 12:10:12;;;;;;;;;;;19.30;85.00;;;;;;5093579;28;20255;-41
2022/09/18 12:12:40;;;;;;;;;;;19.30;85.00;;;;;;5093734;28;19912;-41
2022/09/18 12:15:26;;;;;;;;;;;19.20;85.00;;;;;;5095111;28;19912;-40
2022/09/18 12:17:57;;;;;;;;;;;19.20;84.90;;;;;;5097455;28;19908;-40
2022/09/18 12:20:22;;;;;;;;;;;19.20;85.00;;;;;;5097787;28;19908;-40
2022/09/18 12:22:55;;;;;;;;;;;19.20;85.00;;;;;;5097549;28;19915;-40
2022/09/18 12:25:26;;;;;;;;;;;19.20;85.00;;;;;;5097553;28;19909;-40
2022/09/18 12:27:55;;;;;;;;;;;19.20;85.00;;;;;;5097514;28;19908;-40
2022/09/18 12:30:24;;;;;;;;;;;19.20;85.00;;;;;;5097739;28;19908;-39
2022/09/18 12:33:08;;;;;;;;;;;19.20;85.00;;;;;;5097461;28;19912;-41
2022/09/18 12:36:06;;;;;;;;;;;19.20;84.90;;;;;;5079175;28;19919;-40
2022/09/18 12:38:38;;;;;;;;;;;19.30;85.00;;;;;;5041179;28;19908;-39
2022/09/18 12:41:22;;;;;;;;;;;19.20;84.90;;;;;;5097234;28;19954;-39
2022/09/18 12:43:53;;;;;;;;;;;19.30;84.80;;;;;;5097255;28;19909;-40
2022/09/18 12:46:19;;;;;;;;;;;19.30;84.90;;;;;;5097175;28;19915;-39
2022/09/18 12:48:46;;;;;;;;;;;19.30;84.90;;;;;;5096901;28;19913;-40
2022/09/18 12:51:11;;;;;;;;;;;19.30;84.90;;;;;;5097207;28;19940;-40
2022/09/18 12:53:37;;;;;;;;;;;19.30;84.80;;;;;;5096897;28;19952;-39
2022/09/18 12:56:09;;;;;;;;;;;19.20;84.80;;;;;;5096963;28;19919;-39
2022/09/18 12:58:42;;;;;;;;;;;19.30;84.90;;;;;;5097151;28;20016;-39
2022/09/18 13:01:18;;;;;;;;;;;19.20;84.70;;;;;;5096869;28;20404;-40
2022/09/18 13:03:44;;;;;;;;;;;19.30;84.80;;;;;;5096496;28;19920;-39
2022/09/18 13:06:19;;;;;;;;;;;19.20;84.70;;;;;;5096614;28;19996;-39
2022/09/18 13:08:57;;;;;;;;;;;19.20;84.70;;;;;;5078585;28;19912;-40
2022/09/18 13:11:36;;;;;;;;;;;19.30;84.70;;;;;;5061810;28;19938;-39
2022/09/18 13:14:04;;;;;;;;;;;19.20;84.70;;;;;;5096459;28;20377;-41
2022/09/18 13:16:34;;;;;;;;;;;19.20;84.70;;;;;;5096742;28;19912;-41
2022/09/18 13:19:05;;;;;;;;;;;19.20;84.60;;;;;;5096219;28;20346;-42
2022/09/18 13:21:31;;;;;;;;;;;19.20;84.70;;;;;;5096233;28;19958;-39
2022/09/18 13:23:57;;;;;;;;;;;19.30;84.70;;;;;;5096169;28;19947;-39
2022/09/18 13:26:24;;;;;;;;;;;19.30;84.70;;;;;;5096157;28;19908;-40
2022/09/18 13:28:50;;;;;;;;;;;19.30;84.70;;;;;;5096426;28;20003;-40
2022/09/18 13:31:22;;;;;;;;;;;19.30;84.60;;;;;;5096235;28;19955;-41
2022/09/18 13:33:57;;;;;;;;;;;19.30;84.60;;;;;;5095886;28;19939;-40
2022/09/18 13:36:36;;;;;;;;;;;19.30;84.60;;;;;;5095974;28;19912;-39
2022/09/18 13:39:04;;;;;;;;;;;19.30;84.60;;;;;;5096577;28;19915;-39
2022/09/18 13:41:47;;;;;;;;;;;19.30;84.60;;;;;;5095810;28;19915;-40
2022/09/18 13:44:21;;;;;;;;;;;19.30;85.20;;;;;;5096109;28;19916;-40
2022/09/18 13:46:47;;;;;;;;;;;19.30;84.60;;;;;;5095764;28;19908;-40
2022/09/18 13:49:33;;;;;;;;;;;19.30;84.60;;;;;;5095592;28;19909;-40
2022/09/18 13:52:18;;;;;;;;;;;19.20;84.60;;;;;;5060113;28;19920;-40
2022/09/18 13:55:02;;;;;;;;;;;19.30;84.60;;;;;;5095395;28;19919;-40
2022/09/18 13:57:28;;;;;;;;;;;19.30;84.60;;;;;;5096014;28;20270;-40
2022/09/18 14:00:00;;;;;;;;;;;19.30;84.50;;;;;;5096192;28;19985;-40
2022/09/18 14:02:28;;;;;;;;;;;19.30;84.60;;;;;;5077782;28;20010;-40
2022/09/18 14:04:57;;;;;;;;;;;19.30;84.60;;;;;;5095516;28;20415;-40
2022/09/18 14:07:23;;;;;;;;;;;19.30;84.50;;;;;;5095798;28;19915;-40
2022/09/18 14:09:53;;;;;;;;;;;19.30;84.60;;;;;;5095705;28;19908;-40
2022/09/18 14:12:19;;;;;;;;;;;19.30;84.50;;;;;;5095568;28;20355;-40
2022/09/18 14:14:56;;;;;;;;;;;19.30;84.50;;;;;;5095443;28;19916;-40
2022/09/18 14:17:24;;;;;;;;;;;19.30;84.50;;;;;;5095508;28;19914;-40
2022/09/18 14:19:56;;;;;;;;;;;19.30;84.60;;;;;;5077100;28;19908;-40
2022/09/18 14:22:27;;;;;;;;;;;19.30;84.60;;;;;;5094942;28;19909;-40
2022/09/18 14:24:55;;;;;;;;;;;19.30;84.60;;;;;;5076969;28;19916;-41
2022/09/18 14:27:29;;;;;;;;;;;19.30;84.60;;;;;;5095116;28;19961;-40